createdAt,value
2019-01-31T00:01:18.248Z,35.38
2019-01-31T00:03:46.467Z,36.93
2019-01-31T00:05:59.619Z,31.68
2019-01-31T00:08:27.896Z,35.13
2019-01-31T00:10:37.832Z,36.55
2019-01-31T00:13:00.007Z,39.90
2019-01-31T00:15:09.874Z,36.05
2019-01-31T00:17:45.123Z,34.85
2019-01-31T00:20:06.723Z,39.25
2019-01-31T00:22:22.845Z,29.48
2019-01-31T00:24:32.722Z,34.83
2019-01-31T00:27:03.782Z,34.08
2019-01-31T00:29:10.863Z,33.40
2019-01-31T00:31:29.795Z,42.55
2019-01-31T00:33:51.711Z,34.18
2019-01-31T00:36:36.393Z,33.23
2019-01-31T00:39:04.073Z,38.05
2019-01-31T00:41:35.087Z,37.08
2019-01-31T00:43:51.291Z,30.55
2019-01-31T00:46:31.588Z,32.58
2019-01-31T00:48:56.535Z,33.60
2019-01-31T00:51:09.162Z,38.28
2019-01-31T00:53:39.204Z,32.23
2019-01-31T00:55:48.871Z,31.97
2019-01-31T00:58:07.742Z,31.37
2019-01-31T01:00:17.826Z,29.02
2019-01-31T01:02:44.439Z,37.75
2019-01-31T01:05:09.347Z,37.40
2019-01-31T01:07:45.890Z,33.53
2019-01-31T01:10:10.818Z,32.88
2019-01-31T01:12:47.975Z,26.57
2019-01-31T01:15:17.498Z,32.75
2019-01-31T01:17:33.388Z,32.70
2019-01-31T01:19:52.500Z,29.48
2019-01-31T01:22:17.525Z,29.30
2019-01-31T01:24:33.427Z,28.30
2019-01-31T01:26:55.624Z,27.65
2019-01-31T01:29:14.602Z,31.02
2019-01-31T01:31:36.081Z,33.25
2019-01-31T01:33:48.951Z,35.45
2019-01-31T01:36:01.884Z,31.33
2019-01-31T01:38:23.875Z,25.35
2019-01-31T01:40:50.351Z,27.98
2019-01-31T01:43:26.004Z,32.42
2019-01-31T01:45:41.688Z,27.48
2019-01-31T01:47:57.595Z,30.50
2019-01-31T01:50:26.928Z,28.47
2019-01-31T01:52:39.774Z,28.55
2019-01-31T01:54:52.903Z,31.37
2019-01-31T01:57:05.728Z,27.75
2019-01-31T01:59:33.877Z,28.92
2019-01-31T02:02:01.716Z,31.87
2019-01-31T02:04:14.918Z,33.95
2019-01-31T02:06:45.696Z,29.98
2019-01-31T02:09:16.798Z,28.23
2019-01-31T02:11:50.948Z,28.65
2019-01-31T02:14:23.566Z,26.57
2019-01-31T02:17:06.176Z,27.77
2019-01-31T02:19:16.107Z,28.50
2019-01-31T02:21:32.182Z,25.88
2019-01-31T02:23:54.538Z,28.62
2019-01-31T02:26:27.606Z,29.45
2019-01-31T02:28:43.512Z,29.75
2019-01-31T02:31:22.120Z,36.95
2019-01-31T02:33:57.751Z,28.90
2019-01-31T02:36:16.258Z,29.65
2019-01-31T02:38:32.255Z,26.07
2019-01-31T02:41:00.209Z,31.37
2019-01-31T02:43:13.354Z,30.95
2019-01-31T02:46:04.357Z,25.37
2019-01-31T02:48:23.371Z,27.82
2019-01-31T02:50:48.282Z,32.25
2019-01-31T02:53:04.326Z,30.08
2019-01-31T02:55:36.943Z,31.42
2019-01-31T02:58:02.110Z,27.27
2019-01-31T03:00:42.523Z,27.73
2019-01-31T03:03:10.476Z,33.60
2019-01-31T03:05:20.710Z,28.30
2019-01-31T03:07:47.306Z,29.48
2019-01-31T03:10:00.432Z,30.52
2019-01-31T03:12:31.762Z,32.00
2019-01-31T03:14:35.773Z,33.80
2019-01-31T03:16:51.286Z,28.62
2019-01-31T03:19:16.517Z,31.07
2019-01-31T03:21:39.962Z,30.40
2019-01-31T03:24:01.941Z,26.55
2019-01-31T03:26:24.275Z,26.82
2019-01-31T03:28:43.014Z,26.70
2019-01-31T03:30:55.913Z,27.48
2019-01-31T03:33:11.566Z,25.23
2019-01-31T03:35:45.966Z,32.15
2019-01-31T03:38:05.284Z,29.25
2019-01-31T03:40:29.771Z,27.58
2019-01-31T03:43:07.297Z,29.05
2019-01-31T03:45:36.847Z,28.05
2019-01-31T03:47:59.296Z,27.85
2019-01-31T03:50:11.741Z,23.22
2019-01-31T03:52:24.827Z,23.90
2019-01-31T03:55:06.803Z,27.00
2019-01-31T03:57:46.574Z,24.23
2019-01-31T03:59:53.635Z,25.90
2019-01-31T04:02:06.591Z,29.45
2019-01-31T04:04:13.700Z,24.30
2019-01-31T04:06:18.099Z,27.37
2019-01-31T04:08:19.462Z,28.95
2019-01-31T04:10:20.929Z,23.83
2019-01-31T04:12:22.541Z,26.37
2019-01-31T04:14:27.329Z,28.32
2019-01-31T04:16:27.376Z,25.20
2019-01-31T04:18:28.799Z,28.73
2019-01-31T04:20:30.168Z,23.83
2019-01-31T04:22:31.561Z,27.15
2019-01-31T04:24:32.962Z,29.48
2019-01-31T04:26:34.357Z,24.20
2019-01-31T04:28:35.707Z,27.48
2019-01-31T04:30:37.228Z,27.52
2019-01-31T04:32:38.585Z,24.77
2019-01-31T04:34:40.014Z,24.95
2019-01-31T04:36:41.381Z,24.80
2019-01-31T04:38:42.746Z,30.37
2019-01-31T04:40:44.140Z,24.63
2019-01-31T04:42:45.666Z,22.98
2019-01-31T04:44:47.056Z,21.23
2019-01-31T04:46:48.442Z,24.07
2019-01-31T04:48:50.023Z,25.25
2019-01-31T04:50:51.426Z,26.97
2019-01-31T04:52:52.794Z,24.07
2019-01-31T04:54:54.212Z,21.15
2019-01-31T04:56:55.603Z,22.58
2019-01-31T04:58:56.981Z,29.23
2019-01-31T05:00:58.397Z,21.55
2019-01-31T05:02:59.749Z,29.82
2019-01-31T05:05:01.265Z,26.17
2019-01-31T05:07:02.703Z,22.85
2019-01-31T05:09:05.888Z,20.27
2019-01-31T05:11:07.297Z,25.72
2019-01-31T05:13:08.674Z,27.40
2019-01-31T05:15:12.453Z,26.75
2019-01-31T05:17:13.842Z,25.57
2019-01-31T05:19:15.217Z,28.77
2019-01-31T05:21:16.846Z,24.12
2019-01-31T05:23:18.349Z,23.02
2019-01-31T05:25:19.719Z,23.85
2019-01-31T05:27:21.142Z,22.15
2019-01-31T05:29:22.537Z,17.95
2019-01-31T05:31:23.899Z,23.47
2019-01-31T05:33:25.290Z,23.32
2019-01-31T05:35:26.689Z,23.15
2019-01-31T05:37:28.073Z,26.97
2019-01-31T05:39:29.432Z,21.33
2019-01-31T05:41:30.849Z,23.47
2019-01-31T05:43:32.226Z,27.20
2019-01-31T05:45:33.599Z,23.75
2019-01-31T05:47:35.004Z,24.30
2019-01-31T05:49:36.367Z,21.25
2019-01-31T05:51:39.401Z,22.82
2019-01-31T05:53:40.953Z,21.80
2019-01-31T05:55:42.321Z,24.02
2019-01-31T05:57:43.722Z,23.75
2019-01-31T05:59:45.914Z,18.62
2019-01-31T06:01:47.283Z,21.15
2019-01-31T06:03:48.662Z,21.50
2019-01-31T06:05:50.164Z,19.95
2019-01-31T06:07:51.527Z,19.27
2019-01-31T06:09:52.931Z,20.82
2019-01-31T06:11:54.309Z,24.80
2019-01-31T06:13:55.670Z,22.10
2019-01-31T06:15:57.102Z,22.77
2019-01-31T06:17:58.462Z,21.73
2019-01-31T06:19:59.833Z,20.65
2019-01-31T06:22:01.240Z,23.80
2019-01-31T06:24:02.949Z,21.17
2019-01-31T06:26:04.322Z,23.62
2019-01-31T06:28:05.721Z,22.95
2019-01-31T06:30:15.976Z,22.10
2019-01-31T06:32:17.344Z,19.48
2019-01-31T06:34:18.763Z,28.83
2019-01-31T06:36:20.120Z,26.20
2019-01-31T06:38:21.488Z,21.40
2019-01-31T06:40:22.910Z,26.60
2019-01-31T06:42:24.288Z,22.17
2019-01-31T06:44:25.711Z,24.15
2019-01-31T06:46:27.093Z,22.27
2019-01-31T06:48:28.469Z,21.77
2019-01-31T06:50:29.899Z,20.72
2019-01-31T06:52:31.260Z,24.32
2019-01-31T06:54:32.625Z,23.47
2019-01-31T06:56:34.033Z,24.23
2019-01-31T06:58:35.407Z,20.30
2019-01-31T07:00:36.777Z,25.50
2019-01-31T07:02:38.193Z,20.92
2019-01-31T07:04:39.556Z,23.00
2019-01-31T07:06:40.931Z,20.37
2019-01-31T07:08:42.329Z,21.10
2019-01-31T07:10:43.797Z,17.87
2019-01-31T07:12:45.205Z,23.42
2019-01-31T07:14:46.610Z,21.35
2019-01-31T07:16:47.970Z,21.85
2019-01-31T07:18:49.581Z,22.30
2019-01-31T07:20:50.960Z,21.00
2019-01-31T07:22:52.330Z,23.35
2019-01-31T07:24:54.046Z,21.48
2019-01-31T07:26:55.415Z,17.85
2019-01-31T07:28:56.789Z,19.17
2019-01-31T07:30:58.239Z,22.45
2019-01-31T07:32:59.602Z,18.00
2019-01-31T07:35:00.985Z,19.40
2019-01-31T07:37:02.395Z,23.45
2019-01-31T07:39:06.263Z,24.70
2019-01-31T07:41:07.670Z,22.17
2019-01-31T07:43:09.035Z,20.12
2019-01-31T07:45:18.333Z,26.90
2019-01-31T07:47:19.742Z,20.45
2019-01-31T07:49:21.122Z,21.65
2019-01-31T07:51:22.504Z,21.00
2019-01-31T07:53:23.903Z,21.48
2019-01-31T07:55:25.273Z,21.25
2019-01-31T07:57:26.655Z,19.35
2019-01-31T07:59:28.077Z,26.33
2019-01-31T08:01:29.477Z,26.55
2019-01-31T08:03:30.846Z,19.98
2019-01-31T08:05:32.263Z,19.85
2019-01-31T08:07:33.636Z,18.37
2019-01-31T08:09:35.018Z,19.70
2019-01-31T08:11:36.411Z,21.37
2019-01-31T08:13:37.786Z,25.45
2019-01-31T08:15:39.203Z,21.02
2019-01-31T08:17:41.066Z,18.70
2019-01-31T08:19:42.469Z,20.82
2019-01-31T08:21:43.856Z,19.50
2019-01-31T08:23:45.447Z,20.97
2019-01-31T08:25:46.865Z,18.87
2019-01-31T08:27:49.249Z,23.75
2019-01-31T08:29:50.645Z,17.90
2019-01-31T08:31:52.016Z,20.15
2019-01-31T08:33:53.609Z,19.82
2019-01-31T08:35:54.978Z,18.95
2019-01-31T08:37:56.346Z,18.85
2019-01-31T08:39:57.749Z,19.35
2019-01-31T08:42:03.871Z,21.70
2019-01-31T08:44:02.669Z,22.55
2019-01-31T08:46:04.091Z,18.75
2019-01-31T08:48:05.593Z,20.17
2019-01-31T08:50:14.874Z,19.73
2019-01-31T08:52:16.274Z,18.05
2019-01-31T08:54:17.664Z,19.67
2019-01-31T08:56:19.032Z,16.40
2019-01-31T08:58:20.510Z,14.85
2019-01-31T09:00:26.106Z,18.27
2019-01-31T09:02:27.476Z,12.53
2019-01-31T09:04:28.880Z,15.50
2019-01-31T09:06:30.353Z,11.88
2019-01-31T09:08:31.736Z,12.58
2019-01-31T09:10:36.977Z,13.40
2019-01-31T09:12:38.429Z,10.40
2019-01-31T09:14:39.841Z,12.63
2019-01-31T09:16:41.216Z,10.90
2019-01-31T09:18:42.643Z,10.63
2019-01-31T09:20:58.384Z,9.95
2019-01-31T09:23:17.297Z,9.98
2019-01-31T09:26:01.820Z,9.93
2019-01-31T09:28:20.734Z,9.40
2019-01-31T09:30:52.128Z,8.85
2019-01-31T09:33:23.504Z,7.90
2019-01-31T09:35:47.187Z,8.05
2019-01-31T09:38:34.969Z,7.85
2019-01-31T09:40:56.055Z,9.08
2019-01-31T09:43:06.144Z,8.28
2019-01-31T09:45:16.206Z,8.80
2019-01-31T09:47:41.656Z,9.03
2019-01-31T09:50:23.344Z,8.60
2019-01-31T09:52:55.437Z,7.97
2019-01-31T09:55:52.468Z,7.72
2019-01-31T09:58:02.287Z,8.33
2019-01-31T10:00:12.038Z,7.92
2019-01-31T10:02:35.837Z,9.13
2019-01-31T10:04:54.282Z,7.30
2019-01-31T10:07:22.314Z,7.85
2019-01-31T10:09:38.293Z,7.95
2019-01-31T10:12:04.739Z,7.42
2019-01-31T10:14:27.123Z,7.00
2019-01-31T10:16:55.288Z,7.60
2019-01-31T10:19:27.701Z,8.00
2019-01-31T10:21:40.828Z,8.60
2019-01-31T10:24:14.479Z,7.62
2019-01-31T10:26:42.390Z,7.83
2019-01-31T10:29:04.356Z,7.77
2019-01-31T10:31:47.823Z,7.13
2019-01-31T10:34:29.765Z,7.50
2019-01-31T10:37:00.852Z,7.40
2019-01-31T10:39:10.653Z,8.70
2019-01-31T10:41:34.044Z,7.00
2019-01-31T10:43:53.055Z,8.03
2019-01-31T10:46:09.043Z,7.47
2019-01-31T10:48:27.794Z,7.70
2019-01-31T10:51:02.161Z,7.40
2019-01-31T10:53:26.555Z,7.37
2019-01-31T10:56:06.921Z,9.13
2019-01-31T10:58:22.947Z,6.30
2019-01-31T11:01:03.249Z,7.53
2019-01-31T11:03:38.913Z,7.00
2019-01-31T11:06:16.502Z,6.60
2019-01-31T11:08:58.260Z,6.57
2019-01-31T11:11:17.060Z,7.17
2019-01-31T11:13:49.393Z,10.10
2019-01-31T11:16:28.241Z,6.90
2019-01-31T11:18:49.304Z,6.43
2019-01-31T11:21:26.006Z,6.93
2019-01-31T11:23:38.852Z,9.37
2019-01-31T11:25:54.802Z,7.30
2019-01-31T11:28:13.804Z,5.33
2019-01-31T11:30:36.074Z,5.97
2019-01-31T11:33:19.228Z,5.87
2019-01-31T11:36:12.774Z,4.50
2019-01-31T11:39:00.081Z,7.27
2019-01-31T11:41:27.808Z,5.70
2019-01-31T11:43:49.325Z,6.70
2019-01-31T11:46:08.487Z,6.20
2019-01-31T11:48:30.554Z,5.30
2019-01-31T11:51:01.619Z,4.80
2019-01-31T11:53:08.706Z,6.97
2019-01-31T11:55:27.195Z,5.77
2019-01-31T11:58:04.112Z,6.50
2019-01-31T12:00:12.743Z,5.90
2019-01-31T12:02:14.159Z,6.93
2019-01-31T12:04:15.691Z,6.10
2019-01-31T12:06:17.065Z,7.70
2019-01-31T12:08:18.525Z,5.00
2019-01-31T12:10:20.302Z,6.13
2019-01-31T12:12:22.685Z,5.20
2019-01-31T12:14:24.055Z,5.23
2019-01-31T12:16:25.469Z,10.07
2019-01-31T12:18:26.837Z,5.03
2019-01-31T12:20:28.370Z,5.03
2019-01-31T12:22:29.800Z,5.10
2019-01-31T12:24:31.228Z,3.43
2019-01-31T12:26:32.593Z,4.63
2019-01-31T12:28:34.024Z,4.70
2019-01-31T12:30:35.383Z,5.07
2019-01-31T12:32:36.823Z,4.93
2019-01-31T12:34:38.194Z,6.13
2019-01-31T12:36:39.667Z,6.97
2019-01-31T12:38:41.070Z,5.70
2019-01-31T12:40:42.453Z,4.73
2019-01-31T12:42:44.314Z,4.10
2019-01-31T12:44:45.893Z,5.70
2019-01-31T12:46:47.394Z,3.87
2019-01-31T12:48:48.859Z,4.13
2019-01-31T12:50:50.428Z,4.80
2019-01-31T12:52:52.163Z,4.10
2019-01-31T12:54:53.528Z,5.00
2019-01-31T12:56:54.921Z,4.80
2019-01-31T12:58:56.348Z,4.47
2019-01-31T13:00:57.725Z,19.43
2019-01-31T13:02:59.257Z,4.00
2019-01-31T13:05:00.689Z,3.37
2019-01-31T13:07:02.662Z,4.50
2019-01-31T13:09:07.487Z,4.40
2019-01-31T13:11:08.953Z,5.70
2019-01-31T13:13:10.420Z,3.47
2019-01-31T13:15:14.392Z,5.07
2019-01-31T13:17:15.765Z,4.00
2019-01-31T13:19:17.145Z,5.30
2019-01-31T13:21:20.720Z,5.37
2019-01-31T13:23:21.852Z,5.03
2019-01-31T13:25:24.626Z,7.53
2019-01-31T13:27:26.062Z,14.00
2019-01-31T13:29:27.435Z,6.40
2019-01-31T13:31:28.790Z,4.73
2019-01-31T13:33:30.312Z,5.10
2019-01-31T13:35:31.690Z,5.10
2019-01-31T13:37:33.142Z,5.57
2019-01-31T13:39:34.699Z,7.77
2019-01-31T13:41:36.285Z,10.70
2019-01-31T13:43:37.652Z,5.60
2019-01-31T13:45:39.198Z,7.23
2019-01-31T13:47:40.779Z,5.73
2019-01-31T13:49:42.152Z,4.50
2019-01-31T13:51:43.575Z,5.60
2019-01-31T13:53:45.006Z,5.83
2019-01-31T13:55:46.374Z,7.73
2019-01-31T13:57:48.053Z,6.23
2019-01-31T13:59:49.424Z,6.03
2019-01-31T14:01:50.873Z,5.73
2019-01-31T14:03:52.261Z,9.33
2019-01-31T14:05:53.636Z,5.73
2019-01-31T14:07:55.070Z,7.10
2019-01-31T14:09:56.570Z,8.70
2019-01-31T14:11:57.967Z,8.33
2019-01-31T14:14:08.702Z,6.63
2019-01-31T14:16:02.973Z,7.50
2019-01-31T14:18:04.607Z,7.50
2019-01-31T14:20:11.754Z,8.53
2019-01-31T14:22:13.118Z,8.03
2019-01-31T14:24:14.563Z,6.50
2019-01-31T14:26:16.845Z,6.40
2019-01-31T14:28:18.246Z,7.83
2019-01-31T14:30:33.215Z,8.10
2019-01-31T14:32:34.887Z,6.43
2019-01-31T14:34:36.319Z,14.13
2019-01-31T14:36:37.858Z,6.80
2019-01-31T14:38:39.339Z,8.60
2019-01-31T14:40:40.711Z,7.50
2019-01-31T14:42:42.234Z,8.27
2019-01-31T14:44:43.616Z,7.20
2019-01-31T14:46:44.983Z,7.60
2019-01-31T14:48:46.420Z,7.63
2019-01-31T14:50:48.195Z,8.27
2019-01-31T14:52:49.753Z,7.20
2019-01-31T14:54:51.169Z,7.47
2019-01-31T14:56:52.541Z,7.60
2019-01-31T14:58:53.921Z,8.60
2019-01-31T15:00:55.495Z,7.50
2019-01-31T15:02:56.870Z,6.27
2019-01-31T15:04:58.252Z,7.60
2019-01-31T15:06:59.665Z,8.80
2019-01-31T15:09:01.036Z,6.53
2019-01-31T15:11:02.676Z,6.23
2019-01-31T15:13:04.444Z,6.17
2019-01-31T15:15:10.148Z,8.53
2019-01-31T15:17:11.577Z,6.63
2019-01-31T15:19:12.959Z,6.10
2019-01-31T15:21:14.334Z,6.93
2019-01-31T15:23:15.815Z,6.60
2019-01-31T15:25:17.163Z,6.50
2019-01-31T15:27:18.539Z,6.00
2019-01-31T15:29:19.975Z,6.50
2019-01-31T15:31:21.341Z,7.13
2019-01-31T15:33:22.815Z,6.30
2019-01-31T15:35:24.551Z,6.60
2019-01-31T15:37:25.923Z,7.07
2019-01-31T15:39:27.298Z,6.97
2019-01-31T15:41:28.710Z,6.00
2019-01-31T15:43:30.253Z,6.40
2019-01-31T15:45:31.628Z,6.83
2019-01-31T15:47:33.163Z,6.90
2019-01-31T15:49:34.656Z,6.27
2019-01-31T15:51:36.123Z,6.30
2019-01-31T15:53:37.566Z,6.57
2019-01-31T15:55:39.142Z,8.90
2019-01-31T15:57:40.999Z,6.67
2019-01-31T15:59:42.371Z,7.27
2019-01-31T16:01:43.748Z,7.23
2019-01-31T16:03:45.210Z,6.50
2019-01-31T16:05:46.880Z,7.40
2019-01-31T16:07:48.251Z,6.97
2019-01-31T16:09:49.689Z,6.37
2019-01-31T16:11:51.142Z,5.60
2019-01-31T16:13:52.547Z,9.90
2019-01-31T16:15:54.027Z,7.75
2019-01-31T16:17:55.499Z,8.63
2019-01-31T16:19:56.877Z,8.35
2019-01-31T16:21:58.311Z,6.67
2019-01-31T16:23:59.993Z,6.75
2019-01-31T16:26:01.370Z,6.85
2019-01-31T16:28:03.456Z,6.58
2019-01-31T16:30:12.625Z,7.60
2019-01-31T16:32:14.012Z,6.78
2019-01-31T16:34:15.407Z,8.00
2019-01-31T16:36:17.803Z,8.28
2019-01-31T16:38:19.177Z,8.50
2019-01-31T16:40:20.546Z,10.03
2019-01-31T16:42:22.075Z,10.48
2019-01-31T16:44:23.443Z,8.05
2019-01-31T16:46:24.839Z,9.25
2019-01-31T16:48:26.274Z,8.43
2019-01-31T16:50:27.670Z,6.92
2019-01-31T16:52:29.059Z,7.45
2019-01-31T16:54:30.508Z,7.42
2019-01-31T16:56:31.890Z,5.87
2019-01-31T16:58:33.361Z,7.55
2019-01-31T17:00:35.028Z,7.95
2019-01-31T17:02:36.403Z,6.20
2019-01-31T17:04:37.788Z,7.67
2019-01-31T17:06:39.247Z,8.08
2019-01-31T17:08:40.632Z,7.00
2019-01-31T17:10:42.004Z,8.78
2019-01-31T17:12:43.561Z,8.35
2019-01-31T17:14:44.955Z,8.45
2019-01-31T17:16:46.335Z,10.40
2019-01-31T17:18:48.019Z,9.55
2019-01-31T17:20:49.424Z,9.28
2019-01-31T17:22:50.793Z,9.68
2019-01-31T17:24:52.225Z,10.48
2019-01-31T17:26:53.605Z,11.15
2019-01-31T17:28:54.985Z,10.78
2019-01-31T17:30:56.530Z,9.88
2019-01-31T17:33:00.237Z,12.00
2019-01-31T17:35:01.197Z,11.88
2019-01-31T17:37:02.990Z,12.28
2019-01-31T17:39:06.567Z,13.03
2019-01-31T17:41:08.038Z,9.25
2019-01-31T17:43:09.589Z,9.30
2019-01-31T17:45:15.375Z,10.13
2019-01-31T17:47:16.780Z,12.93
2019-01-31T17:49:18.250Z,11.70
2019-01-31T17:51:19.829Z,13.38
2019-01-31T17:53:21.199Z,13.05
2019-01-31T17:55:24.971Z,14.05
2019-01-31T17:57:26.349Z,13.38
2019-01-31T17:59:27.734Z,16.75
2019-01-31T18:01:29.151Z,13.48
2019-01-31T18:03:30.574Z,13.45
2019-01-31T18:05:31.949Z,12.90
2019-01-31T18:07:33.395Z,14.68
2019-01-31T18:09:34.764Z,14.58
2019-01-31T18:11:36.151Z,12.88
2019-01-31T18:13:37.611Z,12.28
2019-01-31T18:15:42.302Z,12.95
2019-01-31T18:17:42.264Z,14.53
2019-01-31T18:19:43.719Z,19.05
2019-01-31T18:21:45.188Z,14.70
2019-01-31T18:23:46.570Z,17.73
2019-01-31T18:25:48.030Z,14.63
2019-01-31T18:27:49.424Z,12.68
2019-01-31T18:29:50.809Z,13.93
2019-01-31T18:31:52.464Z,13.90
2019-01-31T18:33:53.862Z,12.98
2019-01-31T18:35:55.318Z,14.78
2019-01-31T18:37:56.796Z,13.13
2019-01-31T18:39:58.160Z,17.98
2019-01-31T18:41:59.544Z,12.35
2019-01-31T18:44:00.968Z,13.68
2019-01-31T18:46:02.544Z,15.38
2019-01-31T18:48:05.240Z,15.53
2019-01-31T18:50:11.930Z,20.00
2019-01-31T18:52:13.313Z,15.40
2019-01-31T18:54:16.752Z,13.95
2019-01-31T18:56:18.115Z,14.95
2019-01-31T18:58:19.589Z,15.05
2019-01-31T19:00:28.042Z,17.50
2019-01-31T19:02:29.411Z,15.25
2019-01-31T19:04:30.777Z,16.50
2019-01-31T19:06:32.217Z,16.05
2019-01-31T19:08:33.602Z,15.80
2019-01-31T19:10:42.732Z,19.23
2019-01-31T19:12:38.498Z,18.85
2019-01-31T19:14:39.871Z,16.02
2019-01-31T19:16:41.238Z,18.32
2019-01-31T19:18:42.794Z,23.38
2019-01-31T19:20:44.161Z,16.93
2019-01-31T19:22:46.133Z,22.20
2019-01-31T19:24:47.566Z,21.57
2019-01-31T19:26:48.973Z,23.20
2019-01-31T19:28:50.433Z,25.72
2019-01-31T19:30:51.958Z,21.80
2019-01-31T19:32:53.439Z,25.57
2019-01-31T19:34:54.816Z,22.75
2019-01-31T19:36:56.251Z,25.55
2019-01-31T19:38:57.756Z,22.13
2019-01-31T19:40:59.125Z,25.37
2019-01-31T19:43:00.517Z,24.40
2019-01-31T19:45:06.120Z,32.48
2019-01-31T19:47:07.578Z,30.35
2019-01-31T19:49:08.947Z,31.07
2019-01-31T19:51:10.329Z,34.53
2019-01-31T19:53:11.780Z,32.13
2019-01-31T19:55:13.157Z,31.62
2019-01-31T19:57:14.511Z,29.63
2019-01-31T19:59:15.944Z,28.27
2019-01-31T20:01:17.305Z,28.07
2019-01-31T20:03:18.666Z,35.90
2019-01-31T20:05:20.200Z,32.28
2019-01-31T20:07:21.558Z,31.85
2019-01-31T20:09:23.030Z,34.30
2019-01-31T20:11:24.482Z,38.17
2019-01-31T20:13:26.045Z,32.42
2019-01-31T20:15:27.913Z,39.13
2019-01-31T20:17:29.336Z,41.10
2019-01-31T20:19:30.704Z,37.25
2019-01-31T20:21:32.095Z,33.35
2019-01-31T20:23:33.519Z,40.75
2019-01-31T20:25:34.991Z,40.12
2019-01-31T20:27:36.466Z,41.13
2019-01-31T20:29:37.881Z,36.00
2019-01-31T20:31:39.327Z,31.07
2019-01-31T20:33:40.686Z,37.63
2019-01-31T20:35:42.070Z,40.35
2019-01-31T20:37:43.499Z,37.78
2019-01-31T20:39:44.956Z,39.88
2019-01-31T20:41:53.839Z,38.13
2019-01-31T20:43:49.643Z,39.70
2019-01-31T20:45:51.027Z,37.53
2019-01-31T20:47:52.442Z,39.20
2019-01-31T20:49:53.823Z,35.58
2019-01-31T20:51:55.192Z,35.52
2019-01-31T20:53:56.607Z,37.17
2019-01-31T20:55:57.974Z,36.08
2019-01-31T20:57:59.376Z,36.48
2019-01-31T21:00:00.828Z,36.23
2019-01-31T21:02:02.412Z,41.18
2019-01-31T21:04:03.978Z,35.65
2019-01-31T21:06:05.771Z,41.53
2019-01-31T21:08:08.351Z,40.52
2019-01-31T21:10:10.527Z,37.93
2019-01-31T21:12:11.961Z,39.63
2019-01-31T21:14:13.331Z,40.92
2019-01-31T21:16:14.802Z,46.58
2019-01-31T21:18:16.219Z,38.42
2019-01-31T21:20:20.685Z,46.00
2019-01-31T21:22:22.136Z,45.00
2019-01-31T21:24:23.509Z,42.03
2019-01-31T21:26:24.970Z,42.25
2019-01-31T21:28:26.418Z,40.98
2019-01-31T21:30:35.285Z,35.70
2019-01-31T21:32:36.669Z,43.87
2019-01-31T21:34:38.514Z,41.08
2019-01-31T21:36:39.996Z,44.20
2019-01-31T21:38:41.348Z,48.33
2019-01-31T21:40:42.831Z,42.10
2019-01-31T21:42:44.303Z,40.30
2019-01-31T21:44:45.726Z,41.98
2019-01-31T21:46:47.168Z,40.63
2019-01-31T21:48:48.541Z,44.42
2019-01-31T21:50:49.982Z,42.00
2019-01-31T21:52:51.505Z,42.30
2019-01-31T21:54:52.876Z,42.98
2019-01-31T21:56:54.240Z,46.18
2019-01-31T21:58:55.658Z,46.08
2019-01-31T22:00:57.039Z,48.85
2019-01-31T22:02:58.924Z,48.92
2019-01-31T22:05:00.510Z,52.67
2019-01-31T22:07:01.909Z,46.65
2019-01-31T22:09:06.783Z,54.77
2019-01-31T22:11:08.232Z,46.45
2019-01-31T22:13:09.585Z,50.88
2019-01-31T22:15:24.356Z,47.78
2019-01-31T22:17:25.783Z,55.50
2019-01-31T22:19:27.155Z,49.18
2019-01-31T22:21:28.587Z,44.75
2019-01-31T22:23:29.958Z,45.65
2019-01-31T22:25:31.334Z,53.05
2019-01-31T22:27:32.886Z,51.23
2019-01-31T22:29:34.258Z,55.60
2019-01-31T22:31:35.739Z,44.30
2019-01-31T22:33:37.186Z,52.43
2019-01-31T22:35:38.655Z,49.23
2019-01-31T22:37:40.038Z,56.63
2019-01-31T22:39:41.461Z,52.10
2019-01-31T22:41:42.842Z,54.25
2019-01-31T22:43:44.236Z,45.48
2019-01-31T22:45:45.653Z,52.95
2019-01-31T22:47:47.121Z,51.23
2019-01-31T22:49:48.489Z,54.03
2019-01-31T22:51:49.929Z,51.60
2019-01-31T22:53:51.392Z,46.85
2019-01-31T22:55:52.873Z,53.17
2019-01-31T22:57:54.374Z,50.05
2019-01-31T22:59:55.855Z,51.15
2019-01-31T23:01:57.421Z,53.28
2019-01-31T23:03:59.099Z,52.17
2019-01-31T23:06:00.467Z,56.60
2019-01-31T23:08:01.873Z,50.73
2019-01-31T23:10:09.023Z,47.67
2019-01-31T23:12:10.384Z,54.33
2019-01-31T23:14:11.749Z,43.15
2019-01-31T23:16:13.388Z,56.80
2019-01-31T23:18:14.755Z,53.48
2019-01-31T23:20:16.123Z,66.33
2019-01-31T23:22:17.565Z,51.53
2019-01-31T23:24:18.929Z,56.80
2019-01-31T23:26:22.227Z,54.23
2019-01-31T23:28:23.626Z,61.25
2019-01-31T23:30:25.004Z,53.23
2019-01-31T23:32:26.436Z,51.48
2019-01-31T23:34:27.846Z,62.50
2019-01-31T23:36:29.311Z,50.58
2019-01-31T23:38:30.727Z,55.05
2019-01-31T23:40:32.144Z,47.67
2019-01-31T23:42:33.519Z,56.50
2019-01-31T23:44:34.900Z,53.98
2019-01-31T23:46:36.445Z,47.13
2019-01-31T23:48:37.829Z,45.48
2019-01-31T23:50:39.192Z,49.35
2019-01-31T23:52:41.440Z,47.60
2019-01-31T23:54:42.802Z,50.80
2019-01-31T23:56:44.171Z,49.23
2019-01-31T23:58:45.589Z,54.00
